Time;durP1;ratioP1;P1;durP2;ratioP2;P2;SDS_P1;SDS_P2;PMS_P1;PMS_P2;Temp;Humidity;BMP_temperature;BMP_pressure;BME280_temperature;BME280_humidity;BME280_pressure;Samples;Min_cycle;Max_cycle;Signal;HPM_P1;HPM_P2
2022/08/09 00:07:22;;;;;;;7.82;3.20;;;30.10;25.40;;;;;;21254966;27;20039;-55
2022/08/09 00:17:24;;;;;;;5.63;2.65;;;30.10;26.00;;;;;;21253190;27;20058;-55
2022/08/09 00:27:25;;;;;;;11.00;3.95;;;30.20;26.80;;;;;;21252796;27;20051;-58
2022/08/09 00:37:27;;;;;;;5.72;2.70;;;30.10;27.90;;;;;;21251226;27;20203;-56
2022/08/09 00:47:28;;;;;;;8.38;3.22;;;30.10;28.20;;;;;;21251077;27;20060;-56
2022/08/09 00:57:31;;;;;;;10.00;2.88;;;30.00;29.00;;;;;;21231751;27;20101;-56
2022/08/09 01:07:56;;;;;;;8.45;3.42;;;29.90;30.10;;;;;;21248619;27;20082;-56
2022/08/09 01:18:04;;;;;;;7.75;2.63;;;30.00;30.20;;;;;;21248818;27;20078;-56
2022/08/09 01:28:11;;;;;;;8.73;2.88;;;29.80;31.10;;;;;;21247365;27;20061;-57
2022/08/09 01:38:17;;;;;;;9.18;2.92;;;29.60;31.90;;;;;;21248169;28;20055;-53
2022/08/09 01:48:21;;;;;;;5.38;2.53;;;29.60;32.70;;;;;;21246663;28;20055;-56
2022/08/09 01:58:26;;;;;;;9.80;3.25;;;29.50;33.10;;;;;;21246355;28;20449;-57
2022/08/09 02:08:30;;;;;;;13.93;2.95;;;29.40;33.40;;;;;;21246410;27;20081;-55
2022/08/09 02:18:38;;;;;;;7.82;3.25;;;29.10;33.90;;;;;;21261668;27;20054;-55
2022/08/09 02:28:51;;;;;;;12.63;3.83;;;28.90;33.30;;;;;;21262171;27;20047;-56
2022/08/09 02:38:59;;;;;;;18.70;3.20;;;28.60;33.90;;;;;;21260888;27;20051;-56
2022/08/09 02:49:11;;;;;;;10.70;3.40;;;28.70;34.70;;;;;;21260276;27;20047;-57
2022/08/09 02:59:13;;;;;;;7.40;3.83;;;28.80;33.40;;;;;;21241398;27;20464;-56
2022/08/09 03:09:19;;;;;;;5.78;3.42;;;28.10;32.60;;;;;;21258202;27;20089;-56
2022/08/09 03:19:22;;;;;;;8.00;2.83;;;27.90;33.40;;;;;;21258491;27;20058;-55
2022/08/09 03:29:25;;;;;;;7.40;3.08;;;28.00;34.40;;;;;;21257020;27;20050;-59
2022/08/09 03:39:28;;;;;;;10.40;3.40;;;28.20;34.60;;;;;;21255681;27;20166;-57
2022/08/09 03:49:32;;;;;;;7.75;2.40;;;28.20;34.70;;;;;;21255115;27;20471;-56
2022/08/09 03:59:34;;;;;;;9.10;2.72;;;28.20;35.60;;;;;;21255325;27;20129;-55
2022/08/09 04:09:36;;;;;;;8.80;2.75;;;28.20;35.80;;;;;;21253481;27;20043;-56
2022/08/09 04:19:38;;;;;;;5.57;2.67;;;28.10;36.10;;;;;;21253937;27;20464;-55
2022/08/09 04:29:40;;;;;;;5.88;2.60;;;28.10;36.10;;;;;;21251709;27;20479;-58
2022/08/09 04:39:42;;;;;;;8.43;3.25;;;28.10;36.10;;;;;;21250683;27;20138;-56
2022/08/09 04:49:46;;;;;;;9.05;2.95;;;28.10;36.10;;;;;;21250396;27;20088;-55
2022/08/09 04:59:48;;;;;;;8.95;3.92;;;28.00;36.60;;;;;;21249329;27;20047;-55
2022/08/09 05:09:50;;;;;;;7.28;2.80;;;27.90;37.30;;;;;;21248916;27;20043;-55
2022/08/09 05:19:52;;;;;;;7.00;2.92;;;27.80;38.00;;;;;;21248812;27;20051;-55
2022/08/09 05:29:54;;;;;;;4.78;3.10;;;27.70;38.30;;;;;;21230486;28;20043;-55
2022/08/09 05:39:59;;;;;;;10.70;3.15;;;27.60;38.60;;;;;;21247583;28;20047;-57
2022/08/09 05:50:00;;;;;;;6.13;3.10;;;27.60;38.80;;;;;;21259257;27;20552;-53
2022/08/09 06:00:03;;;;;;;;;;;27.60;39.10;;;;;;21265504;27;20159;-54
2022/08/09 06:10:05;;;;;;;7.88;3.55;;;27.60;39.20;;;;;;21263386;27;19962;-55
2022/08/09 06:20:07;;;;;;;11.50;4.30;;;27.60;39.70;;;;;;21263159;27;20055;-56
2022/08/09 06:30:11;;;;;;;10.90;3.92;;;27.60;39.70;;;;;;21261355;27;20086;-54
2022/08/09 06:40:12;;;;;;;14.35;3.72;;;27.60;39.70;;;;;;21260539;27;20047;-54
2022/08/09 06:50:15;;;;;;;9.38;3.63;;;27.80;38.10;;;;;;21260739;27;20403;-56
2022/08/09 07:00:17;;;;;;;6.93;3.35;;;28.20;36.40;;;;;;21259609;27;20054;-56
2022/08/09 07:10:18;;;;;;;6.85;3.05;;;28.60;36.50;;;;;;21258616;27;20051;-56
2022/08/09 07:20:20;;;;;;;10.45;3.58;;;28.70;36.90;;;;;;21258610;27;20217;-57
2022/08/09 07:30:22;;;;;;;14.18;4.15;;;28.90;36.80;;;;;;21257555;27;20523;-54
2022/08/09 07:40:24;;;;;;;8.93;3.60;;;29.30;36.10;;;;;;21255455;27;20047;-55
2022/08/09 07:50:28;;;;;;;8.00;2.80;;;29.50;36.00;;;;;;21255313;27;20126;-57
2022/08/09 08:00:29;;;;;;;6.32;2.95;;;29.70;35.90;;;;;;21254040;27;20058;-56
2022/08/09 08:10:31;;;;;;;8.35;3.83;;;30.00;35.70;;;;;;21252294;27;20128;-54
2022/08/09 08:20:33;;;;;;;9.02;3.13;;;30.30;35.40;;;;;;21252158;27;20051;-54
2022/08/09 08:30:35;;;;;;;7.82;3.90;;;30.40;34.90;;;;;;21252518;27;20124;-52
2022/08/09 08:40:37;;;;;;;7.60;2.97;;;30.40;35.10;;;;;;21251245;27;20058;-54
2022/08/09 08:50:39;;;;;;;8.13;2.67;;;30.80;34.50;;;;;;21250042;27;20533;-55
2022/08/09 09:00:43;;;;;;;7.80;3.15;;;30.70;33.80;;;;;;21249599;27;20043;-57
2022/08/09 09:10:46;;;;;;;9.85;3.28;;;30.80;33.80;;;;;;21249684;27;20058;-54
2022/08/09 09:20:48;;;;;;;9.10;3.15;;;31.10;34.00;;;;;;21249041;27;20047;-58
2022/08/09 09:30:56;;;;;;;7.28;3.35;;;31.30;33.60;;;;;;21229290;28;20487;-55
2022/08/09 09:40:58;;;;;;;6.10;3.00;;;31.60;32.50;;;;;;21247792;28;20089;-54
2022/08/09 09:50:59;;;;;;;7.63;3.13;;;31.50;32.60;;;;;;21248120;28;20502;-57
2022/08/09 10:01:01;;;;;;;7.75;3.22;;;31.70;32.40;;;;;;21246497;28;20451;-56
2022/08/09 10:11:20;;;;;;;12.30;3.40;;;31.80;32.30;;;;;;21247987;28;20829;-55
2022/08/09 10:21:23;;;;;;;7.20;3.38;;;31.80;32.20;;;;;;21245546;28;20066;-55
2022/08/09 10:31:25;;;;;;;9.20;3.30;;;32.00;31.40;;;;;;21248093;27;20043;-55
2022/08/09 10:41:27;;;;;;;6.85;2.97;;;32.10;31.20;;;;;;21260160;27;20059;-60
2022/08/09 10:51:49;;;;;;;9.50;3.08;;;32.20;30.90;;;;;;21259545;27;20087;-57
2022/08/09 11:01:54;;;;;;;6.60;3.08;;;32.20;30.40;;;;;;21258716;27;20090;-57
2022/08/09 11:11:59;;;;;;;11.70;3.47;;;32.50;30.20;;;;;;21258976;27;20440;-53
2022/08/09 11:22:01;;;;;;;8.07;3.60;;;32.70;29.40;;;;;;21257304;27;20043;-56
2022/08/09 11:32:03;;;;;;;5.07;2.72;;;33.10;29.20;;;;;;21256410;27;20051;-52
2022/08/09 11:42:07;;;;;;;6.50;3.40;;;33.40;27.00;;;;;;21254122;27;20063;-57
2022/08/09 11:52:09;;;;;;;7.35;3.45;;;33.50;27.30;;;;;;21254225;27;20043;-55
2022/08/09 12:02:12;;;;;;;8.73;3.83;;;33.40;27.60;;;;;;21253593;27;20047;-56
2022/08/09 12:12:15;;;;;;;5.40;3.25;;;33.40;27.80;;;;;;21252570;27;20081;-58
2022/08/09 12:22:19;;;;;;;8.93;3.90;;;33.70;27.40;;;;;;21251848;27;20516;-54
2022/08/09 12:32:25;;;;;;;6.70;3.47;;;34.20;26.10;;;;;;21251302;27;20423;-58
2022/08/09 12:42:27;;;;;;;8.52;4.03;;;34.50;26.00;;;;;;21250804;27;20093;-55
2022/08/09 12:52:39;;;;;;;7.72;3.17;;;34.20;26.10;;;;;;21251730;27;20483;-56
2022/08/09 13:02:56;;;;;;;12.80;3.30;;;34.60;25.70;;;;;;21249707;27;20059;-56
2022/08/09 13:12:59;;;;;;;9.45;3.53;;;34.60;25.90;;;;;;21250191;27;20578;-56
2022/08/09 13:23:01;;;;;;;8.68;3.63;;;34.90;25.60;;;;;;21248044;27;20053;-55
2022/08/09 13:33:03;;;;;;;6.50;3.45;;;35.10;24.40;;;;;;21247177;27;20039;-56
2022/08/09 13:43:05;;;;;;;6.80;3.33;;;35.10;24.50;;;;;;21238719;28;20054;-55
2022/08/09 13:53:07;;;;;;;8.00;2.90;;;35.10;24.20;;;;;;21247313;28;20051;-56
2022/08/09 14:03:09;;;;;;;5.03;2.90;;;35.00;24.30;;;;;;21245804;28;20043;-55
2022/08/09 14:13:10;;;;;;;5.57;2.65;;;35.30;23.20;;;;;;21259851;27;20051;-53
2022/08/09 14:23:12;;;;;;;7.32;3.40;;;35.50;22.70;;;;;;21261613;27;20088;-55
2022/08/09 14:33:14;;;;;;;7.70;3.25;;;35.80;22.40;;;;;;21261829;27;20043;-54
2022/08/09 14:43:16;;;;;;;6.38;2.72;;;35.90;22.20;;;;;;21260454;27;20085;-57
2022/08/09 14:53:18;;;;;;;7.93;2.53;;;36.00;21.90;;;;;;21259609;27;20078;-54
2022/08/09 15:03:20;;;;;;;6.72;3.00;;;36.30;21.30;;;;;;21259214;27;20119;-57
2022/08/09 15:13:21;;;;;;;8.48;3.50;;;36.50;21.00;;;;;;21258510;27;20047;-57
2022/08/09 15:23:24;;;;;;;4.28;2.58;;;36.50;21.10;;;;;;21257410;27;20126;-58
2022/08/09 15:33:25;;;;;;;6.13;2.42;;;36.20;21.10;;;;;;21256726;27;20054;-56
2022/08/09 15:43:27;;;;;;;6.38;3.45;;;36.40;21.00;;;;;;21255382;27;20092;-58
2022/08/09 15:53:29;;;;;;;8.27;3.10;;;36.30;21.20;;;;;;21255477;27;20050;-56
2022/08/09 16:03:31;;;;;;;12.30;4.95;;;36.40;21.20;;;;;;21253693;27;20058;-57
2022/08/09 16:13:32;;;;;;;6.90;2.65;;;36.50;21.40;;;;;;21210463;27;20097;-57
2022/08/09 16:23:34;;;;;;;7.20;2.70;;;36.80;21.00;;;;;;21247284;27;20061;-56
2022/08/09 16:33:42;;;;;;;9.90;3.35;;;36.60;20.90;;;;;;21245433;27;20388;-56
2022/08/09 16:43:44;;;;;;;7.30;3.03;;;36.80;21.00;;;;;;21243991;27;20087;-58
2022/08/09 16:53:46;;;;;;;7.60;3.00;;;36.70;20.70;;;;;;21247489;27;20543;-58
2022/08/09 17:03:48;;;;;;;6.80;2.70;;;36.70;20.80;;;;;;21244287;27;20051;-58
2022/08/09 17:13:52;;;;;;;8.30;3.88;;;36.80;20.70;;;;;;21245636;27;20548;-59
2022/08/09 17:23:53;;;;;;;4.80;2.35;;;36.50;20.60;;;;;;21245173;27;20093;-56
2022/08/09 17:33:56;;;;;;;9.73;2.80;;;36.50;20.90;;;;;;21246959;27;20047;-58
2022/08/09 17:43:58;;;;;;;6.88;2.55;;;36.40;20.50;;;;;;21220945;27;20104;-56
2022/08/09 17:54:01;;;;;;;5.43;2.60;;;36.30;19.80;;;;;;21236769;27;20131;-56
2022/08/09 18:04:03;;;;;;;6.93;3.15;;;36.30;20.10;;;;;;21232269;27;20395;-56
2022/08/09 18:14:06;;;;;;;8.95;2.47;;;36.30;20.20;;;;;;21244859;27;20124;-58
2022/08/09 18:24:08;;;;;;;7.50;2.70;;;36.30;19.70;;;;;;21261804;27;20054;-56
2022/08/09 18:34:10;;;;;;;9.68;2.58;;;36.20;19.90;;;;;;21261668;27;20112;-56
2022/08/09 18:44:12;;;;;;;8.15;2.90;;;36.00;20.50;;;;;;21242869;27;20059;-57
2022/08/09 18:54:13;;;;;;;8.02;3.22;;;35.90;20.10;;;;;;21260998;27;20039;-56
2022/08/09 19:04:16;;;;;;;6.68;3.22;;;35.70;20.20;;;;;;21259250;27;20109;-56
2022/08/09 19:14:17;;;;;;;11.10;4.68;;;35.60;20.40;;;;;;21257655;27;20043;-56
2022/08/09 19:24:20;;;;;;;11.27;5.45;;;35.60;19.90;;;;;;21256768;27;20055;-57
2022/08/09 19:34:21;;;;;;;9.18;4.63;;;35.30;20.60;;;;;;21257673;27;20044;-56
2022/08/09 19:44:23;;;;;;;14.05;7.25;;;35.10;20.90;;;;;;21255827;27;20460;-59
2022/08/09 19:54:25;;;;;;;10.40;5.22;;;34.90;21.00;;;;;;21255872;27;20051;-56
2022/08/09 20:04:27;;;;;;;13.13;2.92;;;34.70;21.60;;;;;;21236101;27;20047;-56
2022/08/09 20:14:28;;;;;;;14.77;3.22;;;34.30;22.70;;;;;;21253603;27;20048;-57
2022/08/09 20:24:30;;;;;;;18.80;6.03;;;33.80;23.50;;;;;;21252382;27;20402;-57
2022/08/09 20:34:32;;;;;;;8.43;2.70;;;33.60;23.80;;;;;;21251679;27;20100;-55
2022/08/09 20:44:35;;;;;;;9.43;2.25;;;33.60;23.30;;;;;;21251002;27;20055;-57
2022/08/09 20:54:37;;;;;;;7.97;2.85;;;33.50;23.40;;;;;;21250772;27;20122;-57
2022/08/09 21:04:39;;;;;;;5.45;2.20;;;33.20;23.30;;;;;;21249314;27;20086;-57
2022/08/09 21:14:42;;;;;;;6.35;2.60;;;33.10;23.60;;;;;;21248798;27;20142;-58
2022/08/09 21:35:06;;;;;;;4.70;2.13;;;32.90;24.10;;;;;;21247921;27;20549;-58
2022/08/09 21:45:09;;;;;;;5.85;2.17;;;32.70;24.60;;;;;;21246856;28;20073;-55
2022/08/09 21:55:13;;;;;;;4.82;1.90;;;32.60;24.70;;;;;;21246995;28;20092;-56
2022/08/09 22:05:15;;;;;;;7.40;2.15;;;32.50;25.10;;;;;;21246214;28;20047;-54
2022/08/09 22:15:17;;;;;;;10.00;2.28;;;32.40;25.40;;;;;;21246784;28;20047;-57
2022/08/09 22:25:18;;;;;;;4.93;2.92;;;32.40;26.00;;;;;;21247375;27;20133;-57
2022/08/09 22:35:20;;;;;;;10.02;2.92;;;32.40;26.20;;;;;;21260883;27;20054;-57
2022/08/09 22:45:22;;;;;;;9.48;5.65;;;32.20;26.10;;;;;;21260814;27;20078;-57
2022/08/09 22:55:28;;;;;;;9.15;3.38;;;32.30;26.50;;;;;;21260913;27;20043;-55
2022/08/09 23:05:29;;;;;;;7.53;3.45;;;32.20;26.80;;;;;;21259273;27;20074;-53
2022/08/09 23:15:31;;;;;;;5.72;3.10;;;32.10;26.60;;;;;;21258197;27;20051;-54
2022/08/09 23:25:33;;;;;;;7.43;3.50;;;32.10;26.80;;;;;;21257103;27;20180;-55
2022/08/09 23:35:35;;;;;;;6.70;2.40;;;32.10;26.70;;;;;;21257353;27;20436;-56
2022/08/09 23:45:36;;;;;;;9.95;3.28;;;32.00;26.80;;;;;;21254930;27;20051;-53
2022/08/09 23:55:38;;;;;;;14.20;3.58;;;31.90;26.40;;;;;;21255468;27;20063;-58
